createdAt,value
2018-12-13T00:00:18.272Z,85.49
2018-12-13T00:01:22.078Z,85.39
2018-12-13T00:02:21.050Z,85.49
2018-12-13T00:03:33.964Z,85.53
2018-12-13T00:04:33.254Z,85.49
2018-12-13T00:05:41.871Z,85.68
2018-12-13T00:06:43.615Z,85.63
2018-12-13T00:07:45.979Z,85.30
2018-12-13T00:08:53.664Z,85.63
2018-12-13T00:10:07.401Z,85.44
2018-12-13T00:11:14.266Z,85.72
2018-12-13T00:12:18.067Z,85.49
2018-12-13T00:13:21.554Z,85.68
2018-12-13T00:14:30.062Z,85.39
2018-12-13T00:15:29.252Z,85.44
2018-12-13T00:16:34.996Z,85.72
2018-12-13T00:17:49.247Z,85.53
2018-12-13T00:18:46.075Z,85.58
2018-12-13T00:19:51.516Z,85.53
2018-12-13T00:20:52.441Z,85.77
2018-12-13T00:22:05.876Z,85.20
2018-12-13T00:23:15.503Z,85.44
2018-12-13T00:24:16.029Z,85.53
2018-12-13T00:25:19.107Z,85.72
2018-12-13T00:26:28.016Z,85.77
2018-12-13T00:27:41.035Z,85.49
2018-12-13T00:28:39.503Z,85.30
2018-12-13T00:29:52.107Z,85.16
2018-12-13T00:30:50.271Z,85.16
2018-12-13T00:31:56.630Z,85.25
2018-12-13T00:33:02.268Z,85.01
2018-12-13T00:34:03.199Z,85.25
2018-12-13T00:35:01.875Z,85.35
2018-12-13T00:36:15.315Z,85.25
2018-12-13T00:37:20.532Z,84.78
2018-12-13T00:38:24.331Z,85.01
2018-12-13T00:39:28.535Z,84.97
2018-12-13T00:40:31.108Z,84.78
2018-12-13T00:41:55.796Z,85.16
2018-12-13T00:42:46.689Z,85.35
2018-12-13T00:44:02.272Z,84.87
2018-12-13T00:44:54.488Z,84.87
2018-12-13T00:46:03.211Z,84.91
2018-12-13T00:47:10.380Z,84.87
2018-12-13T00:48:12.740Z,85.20
2018-12-13T00:49:21.146Z,84.97
2018-12-13T00:50:24.638Z,85.06
2018-12-13T00:51:29.255Z,85.06
2018-12-13T00:52:33.875Z,84.87
2018-12-13T00:53:40.741Z,84.87
2018-12-13T00:55:06.762Z,85.06
2018-12-13T00:55:54.076Z,84.78
2018-12-13T00:57:00.947Z,84.68
2018-12-13T00:58:01.056Z,85.25
2018-12-13T00:59:13.865Z,85.25
2018-12-13T01:00:15.101Z,84.78
2018-12-13T01:01:19.514Z,85.06
2018-12-13T01:02:31.710Z,84.78
2018-12-13T01:03:31.819Z,85.16
2018-12-13T01:04:42.068Z,84.97
2018-12-13T01:05:49.654Z,84.87
2018-12-13T01:06:45.826Z,85.25
2018-12-13T01:07:58.345Z,85.16
2018-12-13T01:09:02.479Z,84.97
2018-12-13T01:10:05.458Z,84.97
2018-12-13T01:11:13.868Z,84.78
2018-12-13T01:12:16.941Z,84.97
2018-12-13T01:13:24.840Z,84.59
2018-12-13T01:14:33.450Z,84.49
2018-12-13T01:15:37.342Z,84.59
2018-12-13T01:16:32.369Z,84.68
2018-12-13T01:17:44.323Z,84.49
2018-12-13T01:18:57.234Z,84.78
2018-12-13T01:20:00.211Z,85.25
2018-12-13T01:20:55.923Z,85.06
2018-12-13T01:22:03.412Z,84.97
2018-12-13T01:23:07.307Z,85.06
2018-12-13T01:24:16.941Z,85.16
2018-12-13T01:25:20.848Z,85.06
2018-12-13T01:26:27.401Z,85.35
2018-12-13T01:27:30.483Z,84.59
2018-12-13T01:28:39.914Z,84.78
2018-12-13T01:29:39.924Z,84.49
2018-12-13T01:30:46.801Z,84.78
2018-12-13T01:31:53.362Z,84.40
2018-12-13T01:33:01.249Z,84.59
2018-12-13T01:34:10.781Z,84.40
2018-12-13T01:35:11.617Z,84.01
2018-12-13T01:36:23.905Z,84.30
2018-12-13T01:37:24.267Z,84.21
2018-12-13T01:38:25.152Z,84.21
2018-12-13T01:39:29.974Z,83.92
2018-12-13T01:40:46.779Z,84.11
2018-12-13T01:41:46.886Z,84.11
2018-12-13T01:42:48.639Z,84.30
2018-12-13T01:43:56.835Z,84.78
2018-12-13T01:45:01.658Z,84.78
2018-12-13T01:46:14.670Z,84.59
2018-12-13T01:47:11.404Z,84.49
2018-12-13T01:48:22.576Z,84.78
2018-12-13T01:49:31.395Z,85.16
2018-12-13T01:50:28.541Z,84.40
2018-12-13T01:51:46.672Z,85.06
2018-12-13T01:52:43.195Z,84.97
2018-12-13T01:53:50.170Z,84.87
2018-12-13T01:54:56.932Z,85.16
2018-12-13T01:56:09.542Z,84.97
2018-12-13T01:57:02.068Z,85.35
2018-12-13T01:58:04.127Z,85.16
2018-12-13T01:59:25.229Z,85.25
2018-12-13T02:00:25.238Z,84.97
2018-12-13T02:01:34.464Z,85.06
2018-12-13T02:02:31.402Z,85.63
2018-12-13T02:03:36.326Z,85.30
2018-12-13T02:04:46.982Z,85.40
2018-12-13T02:05:51.085Z,85.78
2018-12-13T02:06:58.703Z,85.68
2018-12-13T02:08:12.817Z,85.68
2018-12-13T02:09:14.875Z,85.49
2018-12-13T02:10:16.212Z,85.49
2018-12-13T02:11:19.191Z,85.49
2018-12-13T02:12:28.519Z,85.49
2018-12-13T02:13:36.311Z,85.49
2018-12-13T02:14:35.194Z,85.40
2018-12-13T02:15:52.403Z,86.35
2018-12-13T02:16:46.472Z,85.68
2018-12-13T02:17:57.747Z,85.87
2018-12-13T02:19:04.309Z,85.97
2018-12-13T02:20:05.550Z,85.30
2018-12-13T02:21:15.824Z,85.78
2018-12-13T02:22:09.044Z,86.44
2018-12-13T02:23:22.159Z,85.97
2018-12-13T02:24:25.750Z,85.02
2018-12-13T02:25:38.661Z,85.40
2018-12-13T02:26:30.579Z,85.59
2018-12-13T02:27:46.462Z,85.78
2018-12-13T02:28:51.590Z,85.40
2018-12-13T02:29:54.772Z,85.59
2018-12-13T02:31:10.248Z,85.59
2018-12-13T02:31:49.157Z,85.59
2018-12-13T02:33:10.879Z,85.59
2018-12-13T02:34:10.171Z,85.59
2018-12-13T02:35:21.043Z,85.59
2018-12-13T02:36:26.576Z,85.30
2018-12-13T02:37:25.966Z,85.87
2018-12-13T02:38:38.266Z,85.97
2018-12-13T02:39:39.810Z,86.16
2018-12-13T02:40:45.449Z,86.25
2018-12-13T02:41:56.723Z,86.72
2018-12-13T02:42:59.804Z,86.91
2018-12-13T02:43:58.380Z,86.63
2018-12-13T02:45:20.823Z,87.01
2018-12-13T02:46:16.011Z,87.30
2018-12-13T02:47:19.195Z,87.39
2018-12-13T02:48:43.167Z,87.39
2018-12-13T02:49:29.658Z,87.20
2018-12-13T02:50:23.830Z,87.58
2018-12-13T02:51:44.113Z,87.77
2018-12-13T02:52:53.751Z,87.39
2018-12-13T02:54:04.817Z,87.68
2018-12-13T02:54:59.907Z,87.68
2018-12-13T02:56:01.963Z,87.11
2018-12-13T02:57:14.473Z,87.30
2018-12-13T02:58:16.416Z,87.39
2018-12-13T02:59:22.363Z,87.20
2018-12-13T03:00:22.473Z,87.49
2018-12-13T03:01:52.388Z,87.68
2018-12-13T03:02:41.335Z,87.11
2018-12-13T03:03:40.115Z,87.39
2018-12-13T03:05:02.873Z,87.20
2018-12-13T03:06:01.237Z,87.20
2018-12-13T03:06:53.864Z,87.06
2018-12-13T03:08:05.859Z,87.16
2018-12-13T03:09:29.315Z,87.39
2018-12-13T03:10:14.170Z,87.39
2018-12-13T03:11:12.745Z,87.39
2018-12-13T03:12:22.378Z,87.11
2018-12-13T03:13:47.791Z,87.54
2018-12-13T03:14:35.919Z,87.49
2018-12-13T03:15:50.875Z,87.35
2018-12-13T03:16:56.311Z,87.63
2018-12-13T03:18:11.578Z,87.68
2018-12-13T03:18:53.870Z,87.39
2018-12-13T03:20:22.348Z,87.16
2018-12-13T03:21:25.438Z,87.54
2018-12-13T03:22:17.962Z,87.25
2018-12-13T03:23:27.189Z,87.45
2018-12-13T03:24:47.990Z,87.45
2018-12-13T03:25:56.904Z,87.63
2018-12-13T03:26:55.381Z,87.54
2018-12-13T03:27:53.608Z,87.73
2018-12-13T03:29:09.527Z,87.82
2018-12-13T03:30:12.201Z,87.63
2018-12-13T03:31:08.888Z,87.54
2018-12-13T03:32:21.461Z,87.63
2018-12-13T03:33:24.623Z,87.92
2018-12-13T03:34:34.814Z,87.82
2018-12-13T03:35:55.979Z,87.45
2018-12-13T03:36:55.057Z,87.63
2018-12-13T03:37:51.801Z,87.82
2018-12-13T03:38:54.564Z,87.54
2018-12-13T03:40:00.921Z,87.54
2018-12-13T03:41:38.104Z,87.54
2018-12-13T03:42:15.585Z,87.45
2018-12-13T03:43:19.484Z,87.82
2018-12-13T03:44:17.442Z,87.63
2018-12-13T03:45:37.424Z,87.92
2018-12-13T03:46:44.291Z,87.92
2018-12-13T03:47:51.672Z,87.45
2018-12-13T03:48:41.542Z,87.45
2018-12-13T03:50:12.579Z,87.63
2018-12-13T03:51:14.304Z,87.54
2018-12-13T03:52:32.470Z,87.82
2018-12-13T03:53:30.014Z,87.73
2018-12-13T03:54:20.192Z,87.63
2018-12-13T03:55:38.123Z,87.82
2018-12-13T03:56:31.881Z,87.45
2018-12-13T03:58:02.202Z,87.54
2018-12-13T03:58:54.531Z,87.45
2018-12-13T04:00:10.001Z,87.92
2018-12-13T04:00:57.006Z,87.45
2018-12-13T04:02:20.369Z,88.10
2018-12-13T04:03:18.118Z,87.35
2018-12-13T04:04:04.710Z,87.82
2018-12-13T04:05:39.743Z,87.45
2018-12-13T04:07:05.348Z,87.73
2018-12-13T04:08:03.105Z,87.45
2018-12-13T04:09:00.818Z,87.73
2018-12-13T04:10:59.255Z,87.63
2018-12-13T04:11:34.264Z,87.73
2018-12-13T04:13:12.272Z,87.54
2018-12-13T04:14:15.014Z,87.54
2018-12-13T04:15:16.070Z,87.92
2018-12-13T04:16:36.567Z,87.73
2018-12-13T04:17:31.246Z,87.73
2018-12-13T04:19:22.251Z,87.73
2018-12-13T04:20:37.927Z,87.54
2018-12-13T04:22:02.326Z,87.54
2018-12-13T04:23:01.091Z,87.35
2018-12-13T04:23:49.217Z,87.25
2018-12-13T04:25:28.961Z,87.45
2018-12-13T04:26:32.144Z,87.25
2018-12-13T04:27:33.434Z,87.63
2018-12-13T04:28:30.521Z,87.54
2018-12-13T04:30:09.448Z,87.35
2018-12-13T04:31:09.969Z,87.54
2018-12-13T04:32:09.327Z,86.78
2018-12-13T04:33:15.205Z,86.78
2018-12-13T04:34:35.181Z,86.97
2018-12-13T04:35:01.191Z,86.97
2018-12-13T04:37:18.923Z,86.68
2018-12-13T04:38:02.857Z,86.02
2018-12-13T04:39:31.845Z,86.78
2018-12-13T04:40:35.642Z,86.68
2018-12-13T04:41:56.846Z,86.40
2018-12-13T04:42:47.817Z,86.68
2018-12-13T04:44:08.744Z,86.49
2018-12-13T04:45:26.572Z,86.64
2018-12-13T04:47:02.112Z,86.83
2018-12-13T04:48:03.145Z,86.49
2018-12-13T04:49:35.720Z,86.83
2018-12-13T04:50:20.160Z,86.64
2018-12-13T04:51:36.245Z,86.35
2018-12-13T04:52:24.180Z,86.74
2018-12-13T04:53:38.923Z,86.55
2018-12-13T04:55:03.306Z,86.55
2018-12-13T04:55:33.309Z,86.83
2018-12-13T04:56:57.180Z,86.83
2018-12-13T04:58:00.771Z,86.45
2018-12-13T04:59:09.589Z,86.45
2018-12-13T05:00:27.519Z,86.35
2018-12-13T05:01:14.624Z,86.83
2018-12-13T05:02:26.102Z,86.93
2018-12-13T05:03:41.880Z,87.02
2018-12-13T05:04:22.943Z,87.40
2018-12-13T05:06:15.282Z,87.12
2018-12-13T05:06:57.575Z,87.21
2018-12-13T05:08:21.031Z,87.02
2018-12-13T05:09:11.723Z,86.64
2018-12-13T05:10:24.840Z,86.83
2018-12-13T05:11:27.000Z,86.45
2018-12-13T05:12:23.221Z,86.55
2018-12-13T05:13:26.301Z,86.55
2018-12-13T05:14:58.259Z,86.55
2018-12-13T05:15:58.985Z,86.64
2018-12-13T05:17:16.608Z,86.35
2018-12-13T05:18:18.984Z,86.35
2018-12-13T05:19:13.968Z,86.55
2018-12-13T05:20:15.099Z,86.55
2018-12-13T05:21:03.741Z,86.26
2018-12-13T05:22:18.503Z,86.64
2018-12-13T05:23:13.792Z,86.64
2018-12-13T05:24:43.294Z,86.74
2018-12-13T05:25:35.831Z,86.55
2018-12-13T05:27:10.144Z,86.55
2018-12-13T05:28:05.443Z,86.35
2018-12-13T05:29:09.033Z,86.55
2018-12-13T05:30:21.532Z,86.55
2018-12-13T05:31:06.181Z,86.74
2018-12-13T05:32:10.187Z,86.55
2018-12-13T05:33:10.805Z,86.55
2018-12-13T05:34:34.777Z,86.64
2018-12-13T05:35:42.991Z,86.45
2018-12-13T05:36:42.781Z,86.45
2018-12-13T05:37:39.519Z,86.45
2018-12-13T05:38:47.334Z,86.64
2018-12-13T05:39:45.571Z,86.64
2018-12-13T05:40:56.329Z,86.55
2018-12-13T05:41:53.578Z,86.35
2018-12-13T05:43:05.260Z,86.64
2018-12-13T05:44:17.148Z,86.26
2018-12-13T05:45:17.162Z,86.45
2018-12-13T05:46:21.158Z,86.26
2018-12-13T05:47:24.751Z,86.64
2018-12-13T05:48:32.850Z,86.74
2018-12-13T05:49:39.717Z,86.93
2018-12-13T05:50:28.357Z,86.83
2018-12-13T05:51:45.373Z,87.21
2018-12-13T05:52:54.384Z,87.49
2018-12-13T05:54:00.229Z,87.12
2018-12-13T05:54:59.830Z,87.30
2018-12-13T05:56:09.360Z,87.59
2018-12-13T05:57:12.856Z,87.49
2018-12-13T05:58:09.172Z,87.40
2018-12-13T05:59:21.675Z,87.40
2018-12-13T06:00:24.755Z,87.21
2018-12-13T06:01:27.118Z,87.30
2018-12-13T06:02:39.826Z,87.30
2018-12-13T06:03:45.464Z,87.30
2018-12-13T06:04:45.267Z,87.21
2018-12-13T06:05:58.383Z,87.49
2018-12-13T06:07:00.437Z,87.59
2018-12-13T06:07:59.114Z,87.40
2018-12-13T06:09:16.122Z,87.40
2018-12-13T06:10:16.749Z,87.49
2018-12-13T06:11:18.191Z,87.21
2018-12-13T06:12:21.683Z,87.40
2018-12-13T06:13:31.729Z,87.40
2018-12-13T06:14:34.708Z,87.40
2018-12-13T06:15:47.727Z,87.59
2018-12-13T06:16:49.778Z,87.49
2018-12-13T06:17:48.558Z,87.21
2018-12-13T06:19:01.267Z,87.02
2018-12-13T06:19:57.077Z,87.30
2018-12-13T06:21:12.140Z,87.40
2018-12-13T06:22:23.927Z,87.49
2018-12-13T06:23:19.529Z,87.21
2018-12-13T06:24:23.020Z,86.93
2018-12-13T06:25:34.808Z,87.49
2018-12-13T06:26:34.612Z,87.49
2018-12-13T06:27:46.805Z,87.21
2018-12-13T06:28:54.492Z,87.12
2018-12-13T06:29:51.223Z,87.12
2018-12-13T06:30:55.650Z,86.93
2018-12-13T06:32:04.368Z,87.40
2018-12-13T06:33:11.320Z,87.02
2018-12-13T06:34:14.300Z,87.59
2018-12-13T06:35:33.869Z,87.40
2018-12-13T06:36:27.936Z,87.21
2018-12-13T06:37:30.096Z,87.02
2018-12-13T06:38:30.824Z,87.40
2018-12-13T06:39:44.453Z,87.40
2018-12-13T06:40:49.376Z,87.40
2018-12-13T06:41:54.913Z,87.12
2018-12-13T06:42:57.484Z,87.30
2018-12-13T06:44:03.741Z,87.16
2018-12-13T06:45:09.893Z,87.30
2018-12-13T06:46:07.649Z,87.73
2018-12-13T06:47:17.284Z,87.87
2018-12-13T06:48:35.116Z,87.49
2018-12-13T06:49:36.964Z,87.54
2018-12-13T06:50:36.368Z,87.87
2018-12-13T06:51:45.787Z,87.49
2018-12-13T06:52:46.716Z,87.54
2018-12-13T06:53:52.663Z,87.45
2018-12-13T06:54:57.177Z,87.45
2018-12-13T06:56:11.831Z,87.83
2018-12-13T06:57:09.179Z,87.83
2018-12-13T06:58:16.355Z,87.45
2018-12-13T06:59:31.825Z,87.54
2018-12-13T07:00:23.847Z,87.54
2018-12-13T07:01:34.458Z,87.54
2018-12-13T07:02:34.516Z,87.54
2018-12-13T07:03:42.104Z,87.35
2018-12-13T07:04:45.694Z,87.45
2018-12-13T07:05:54.304Z,87.45
2018-12-13T07:07:07.317Z,87.45
2018-12-13T07:08:09.072Z,87.54
2018-12-13T07:09:11.123Z,87.45
2018-12-13T07:10:29.154Z,87.45
2018-12-13T07:11:17.335Z,87.54
2018-12-13T07:12:32.857Z,87.54
2018-12-13T07:13:32.868Z,87.54
2018-12-13T07:14:38.407Z,87.45
2018-12-13T07:15:47.017Z,87.83
2018-12-13T07:16:51.748Z,87.83
2018-12-13T07:17:54.614Z,87.54
2018-12-13T07:19:09.222Z,87.35
2018-12-13T07:20:04.979Z,87.45
2018-12-13T07:21:12.049Z,87.54
2018-12-13T07:22:14.103Z,87.73
2018-12-13T07:23:23.738Z,87.83
2018-12-13T07:24:32.864Z,87.64
2018-12-13T07:25:37.685Z,87.54
2018-12-13T07:26:35.442Z,87.83
2018-12-13T07:27:48.658Z,87.54
2018-12-13T07:29:00.555Z,87.35
2018-12-13T07:30:05.164Z,87.54
2018-12-13T07:31:07.423Z,87.26
2018-12-13T07:32:06.203Z,87.35
2018-12-13T07:33:22.081Z,87.54
2018-12-13T07:34:16.563Z,87.54
2018-12-13T07:35:28.859Z,87.83
2018-12-13T07:36:25.283Z,87.54
2018-12-13T07:37:40.653Z,87.83
2018-12-13T07:38:30.422Z,87.64
2018-12-13T07:39:57.674Z,87.26
2018-12-13T07:40:41.395Z,87.26
2018-12-13T07:41:49.596Z,87.26
2018-12-13T07:43:06.295Z,87.26
2018-12-13T07:44:04.462Z,87.54
2018-12-13T07:45:12.355Z,87.54
2018-12-13T07:46:22.707Z,87.54
2018-12-13T07:47:28.972Z,87.16
2018-12-13T07:48:32.043Z,87.26
2018-12-13T07:49:38.607Z,87.54
2018-12-13T07:50:39.129Z,87.35
2018-12-13T07:51:50.096Z,87.54
2018-12-13T07:52:53.587Z,87.26
2018-12-13T07:53:50.315Z,87.54
2018-12-13T07:54:53.702Z,87.73
2018-12-13T07:56:06.927Z,87.73
2018-12-13T07:57:07.956Z,87.35
2018-12-13T07:58:13.290Z,87.54
2018-12-13T07:59:23.945Z,87.35
2018-12-13T08:00:26.004Z,87.26
2018-12-13T08:01:36.262Z,87.35
2018-12-13T08:02:44.151Z,87.35
2018-12-13T08:03:46.510Z,87.26
2018-12-13T08:05:00.243Z,87.54
2018-12-13T08:06:07.213Z,87.54
2018-12-13T08:06:59.645Z,87.26
2018-12-13T08:08:08.256Z,87.16
2018-12-13T08:09:16.150Z,87.26
2018-12-13T08:10:18.002Z,87.64
2018-12-13T08:11:27.740Z,87.64
2018-12-13T08:12:31.129Z,87.73
2018-12-13T08:13:43.015Z,87.35
2018-12-13T08:14:43.431Z,87.73
2018-12-13T08:15:45.386Z,87.35
2018-12-13T08:16:59.219Z,87.35
2018-12-13T08:18:02.605Z,87.07
2018-12-13T08:18:55.036Z,87.07
2018-12-13T08:20:08.155Z,87.45
2018-12-13T08:21:09.904Z,87.26
2018-12-13T08:22:15.344Z,87.54
2018-12-13T08:23:25.694Z,87.26
2018-12-13T08:24:27.443Z,87.16
2018-12-13T08:25:31.753Z,87.35
2018-12-13T08:26:48.656Z,87.35
2018-12-13T08:27:35.862Z,87.45
2018-12-13T08:28:53.177Z,87.45
2018-12-13T08:29:52.059Z,87.26
2018-12-13T08:31:00.258Z,87.35
2018-12-13T08:32:08.151Z,87.26
2018-12-13T08:33:22.300Z,87.54
2018-12-13T08:34:28.958Z,87.26
2018-12-13T08:35:26.608Z,87.35
2018-12-13T08:36:21.087Z,87.35
2018-12-13T08:37:35.232Z,87.54
2018-12-13T08:38:42.407Z,87.45
2018-12-13T08:39:48.559Z,87.45
2018-12-13T08:40:48.259Z,86.79
2018-12-13T08:41:59.331Z,86.79
2018-12-13T08:42:58.208Z,86.88
2018-12-13T08:44:16.341Z,89.44
2018-12-13T08:45:13.789Z,89.01
2018-12-13T08:46:22.921Z,88.30
2018-12-13T08:47:25.383Z,87.59
2018-12-13T08:48:28.768Z,87.21
2018-12-13T08:49:35.493Z,86.93
2018-12-13T08:50:36.667Z,86.64
2018-12-13T08:51:50.707Z,86.55
2018-12-13T08:52:48.225Z,86.35
2018-12-13T08:54:09.465Z,86.16
2018-12-13T08:55:13.364Z,86.35
2018-12-13T08:56:19.931Z,86.55
2018-12-13T08:57:12.560Z,85.88
2018-12-13T08:58:24.244Z,85.50
2018-12-13T08:59:29.574Z,85.41
2018-12-13T09:00:34.193Z,85.50
2018-12-13T09:01:35.735Z,85.13
2018-12-13T09:02:41.888Z,85.31
2018-12-13T09:03:52.750Z,85.13
2018-12-13T09:05:01.179Z,84.94
2018-12-13T09:06:08.642Z,85.13
2018-12-13T09:07:05.680Z,84.74
2018-12-13T09:08:09.581Z,84.94
2018-12-13T09:09:19.115Z,85.13
2018-12-13T09:10:23.833Z,84.74
2018-12-13T09:11:26.820Z,85.03
2018-12-13T09:12:36.756Z,84.27
2018-12-13T09:13:39.845Z,84.84
2018-12-13T09:14:50.606Z,84.55
2018-12-13T09:15:46.716Z,84.65
2018-12-13T09:16:54.409Z,84.65
2018-12-13T09:18:08.548Z,84.65
2018-12-13T09:19:09.579Z,84.27
2018-12-13T09:20:08.463Z,85.13
2018-12-13T09:21:15.231Z,84.94
2018-12-13T09:22:24.967Z,84.46
2018-12-13T09:23:29.380Z,84.36
2018-12-13T09:24:29.797Z,84.17
2018-12-13T09:25:39.842Z,83.80
2018-12-13T09:26:49.885Z,83.98
2018-12-13T09:27:53.478Z,83.89
2018-12-13T09:28:59.323Z,83.61
2018-12-13T09:30:14.693Z,83.80
2018-12-13T09:31:17.364Z,83.70
2018-12-13T09:32:21.271Z,83.51
2018-12-13T09:33:22.091Z,83.32
2018-12-13T09:34:30.196Z,83.70
2018-12-13T09:35:40.026Z,83.32
2018-12-13T09:36:41.879Z,83.42
2018-12-13T09:37:51.616Z,83.74
2018-12-13T09:38:51.220Z,83.36
2018-12-13T09:40:03.921Z,83.42
2018-12-13T09:41:03.830Z,83.84
2018-12-13T09:42:21.450Z,83.70
2018-12-13T09:43:30.982Z,83.27
2018-12-13T09:44:18.400Z,82.70
2018-12-13T09:45:32.328Z,82.13
2018-12-13T09:46:32.143Z,82.51
2018-12-13T09:47:40.917Z,82.04
2018-12-13T09:48:49.424Z,82.98
2018-12-13T09:49:55.208Z,82.60
2018-12-13T09:50:51.833Z,82.70
2018-12-13T09:52:07.609Z,82.60
2018-12-13T09:53:16.893Z,82.79
2018-12-13T09:54:07.115Z,82.70
2018-12-13T09:55:21.260Z,82.42
2018-12-13T09:56:11.432Z,82.13
2018-12-13T09:57:32.229Z,82.23
2018-12-13T09:58:33.477Z,81.85
2018-12-13T09:59:55.391Z,81.85
2018-12-13T10:00:53.146Z,81.37
2018-12-13T10:01:57.058Z,81.18
2018-12-13T10:02:54.190Z,81.75
2018-12-13T10:04:12.749Z,81.47
2018-12-13T10:05:12.536Z,81.56
2018-12-13T10:06:23.404Z,81.56
2018-12-13T10:07:16.859Z,81.47
2018-12-13T10:08:33.667Z,80.90
2018-12-13T10:09:41.553Z,81.09
2018-12-13T10:10:38.593Z,80.80
2018-12-13T10:11:43.616Z,80.80
2018-12-13T10:12:52.123Z,80.71
2018-12-13T10:13:54.284Z,80.71
2018-12-13T10:15:04.227Z,81.37
2018-12-13T10:16:13.755Z,80.90
2018-12-13T10:17:08.648Z,81.37
2018-12-13T10:18:11.627Z,81.37
2018-12-13T10:19:17.163Z,80.99
2018-12-13T10:20:22.598Z,80.80
2018-12-13T10:21:28.445Z,81.24
2018-12-13T10:22:34.400Z,80.76
2018-12-13T10:23:36.550Z,80.86
2018-12-13T10:24:40.041Z,81.27
2018-12-13T10:25:59.728Z,80.76
2018-12-13T10:27:00.233Z,80.80
2018-12-13T10:28:01.879Z,80.80
2018-12-13T10:29:19.706Z,80.99
2018-12-13T10:30:03.741Z,81.09
2018-12-13T10:31:33.854Z,81.09
2018-12-13T10:32:15.429Z,80.62
2018-12-13T10:33:29.875Z,80.90
2018-12-13T10:34:27.530Z,80.62
2018-12-13T10:35:46.185Z,80.52
2018-12-13T10:36:56.331Z,80.29
2018-12-13T10:37:53.266Z,80.00
2018-12-13T10:39:10.372Z,80.57
2018-12-13T10:39:58.294Z,80.43
2018-12-13T10:41:06.291Z,80.62
2018-12-13T10:42:02.919Z,80.43
2018-12-13T10:43:13.884Z,80.24
2018-12-13T10:44:23.926Z,80.24
2018-12-13T10:45:35.095Z,80.04
2018-12-13T10:46:28.448Z,80.43
2018-12-13T10:47:37.373Z,80.33
2018-12-13T10:48:41.689Z,80.62
2018-12-13T10:49:52.334Z,80.14
2018-12-13T10:50:55.113Z,80.24
2018-12-13T10:52:05.824Z,79.66
2018-12-13T10:52:58.195Z,79.95
2018-12-13T10:54:18.068Z,79.95
2018-12-13T10:55:23.913Z,79.76
2018-12-13T10:56:29.766Z,79.85
2018-12-13T10:57:35.706Z,79.76
2018-12-13T10:58:44.625Z,79.57
2018-12-13T10:59:49.042Z,79.38
2018-12-13T11:00:35.638Z,79.66
2018-12-13T11:01:54.910Z,79.00
2018-12-13T11:03:00.125Z,78.81
2018-12-13T11:04:05.364Z,78.81
2018-12-13T11:05:14.988Z,78.62
2018-12-13T11:06:22.270Z,79.00
2018-12-13T11:07:31.497Z,78.81
2018-12-13T11:08:25.160Z,78.81
2018-12-13T11:09:28.747Z,78.72
2018-12-13T11:10:35.922Z,78.81
2018-12-13T11:11:41.049Z,79.00
2018-12-13T11:12:46.900Z,78.62
2018-12-13T11:13:58.690Z,78.43
2018-12-13T11:15:00.636Z,78.81
2018-12-13T11:16:01.669Z,79.57
2018-12-13T11:17:05.568Z,79.19
2018-12-13T11:18:16.432Z,78.91
2018-12-13T11:19:25.046Z,78.53
2018-12-13T11:20:25.974Z,77.29
2018-12-13T11:21:32.127Z,78.15
2018-12-13T11:22:48.114Z,78.24
2018-12-13T11:23:45.073Z,77.29
2018-12-13T11:24:48.338Z,77.48
2018-12-13T11:25:50.905Z,77.58
2018-12-13T11:27:03.088Z,78.34
2018-12-13T11:28:08.741Z,78.15
2018-12-13T11:29:13.559Z,78.53
2018-12-13T11:30:26.572Z,78.24
2018-12-13T11:31:19.411Z,77.29
2018-12-13T11:32:47.387Z,77.77
2018-12-13T11:33:31.205Z,77.96
2018-12-13T11:34:59.375Z,77.58
2018-12-13T11:36:02.659Z,76.92
2018-12-13T11:36:58.470Z,76.92
2018-12-13T11:37:49.574Z,76.82
2018-12-13T11:39:29.515Z,77.20
2018-12-13T11:40:05.128Z,76.92
2018-12-13T11:41:39.376Z,77.11
2018-12-13T11:42:28.521Z,77.43
2018-12-13T11:43:56.381Z,76.63
2018-12-13T11:44:49.843Z,76.63
2018-12-13T11:45:55.067Z,76.67
2018-12-13T11:47:17.092Z,76.06
2018-12-13T11:48:07.781Z,76.54
2018-12-13T11:48:53.323Z,76.39
2018-12-13T11:50:25.413Z,76.86
2018-12-13T11:51:03.105Z,76.44
2018-12-13T11:52:33.464Z,76.57
2018-12-13T11:53:44.490Z,76.57
2018-12-13T11:54:37.671Z,76.48
2018-12-13T11:56:07.238Z,75.72
2018-12-13T11:57:01.104Z,75.91
2018-12-13T11:58:12.386Z,75.53
2018-12-13T11:58:52.928Z,74.87
2018-12-13T12:00:19.396Z,75.53
2018-12-13T12:01:22.052Z,75.05
2018-12-13T12:02:33.001Z,75.24
2018-12-13T12:03:41.209Z,75.43
2018-12-13T12:04:45.514Z,75.43
2018-12-13T12:06:00.980Z,75.34
2018-12-13T12:06:40.916Z,75.62
2018-12-13T12:08:03.921Z,74.87
2018-12-13T12:08:57.154Z,74.96
2018-12-13T12:10:17.400Z,74.77
2018-12-13T12:11:04.923Z,74.77
2018-12-13T12:13:00.836Z,74.20
2018-12-13T12:13:59.206Z,74.11
2018-12-13T12:15:07.814Z,74.87
2018-12-13T12:16:12.024Z,74.87
2018-12-13T12:17:36.920Z,74.87
2018-12-13T12:18:32.220Z,74.62
2018-12-13T12:19:18.428Z,74.90
2018-12-13T12:20:42.778Z,75.28
2018-12-13T12:21:29.377Z,74.81
2018-12-13T12:23:08.092Z,74.90
2018-12-13T12:24:02.695Z,74.52
2018-12-13T12:25:20.711Z,74.05
2018-12-13T12:25:55.533Z,73.76
2018-12-13T12:27:04.138Z,73.67
2018-12-13T12:28:05.478Z,74.15
2018-12-13T12:29:29.051Z,73.67
2018-12-13T12:30:35.293Z,73.29
2018-12-13T12:31:19.942Z,73.57
2018-12-13T12:32:29.985Z,73.57
2018-12-13T12:33:39.311Z,72.63
2018-12-13T12:34:43.108Z,71.67
2018-12-13T12:35:41.794Z,71.67
2018-12-13T12:36:57.771Z,71.90
2018-12-13T12:37:57.676Z,72.19
2018-12-13T12:39:02.500Z,71.33
2018-12-13T12:40:04.354Z,71.52
2018-12-13T12:41:13.780Z,71.90
2018-12-13T12:42:09.592Z,71.52
2018-12-13T12:43:30.081Z,70.67
2018-12-13T12:44:20.669Z,71.14
2018-12-13T12:45:31.019Z,71.43
2018-12-13T12:46:33.794Z,70.86
2018-12-13T12:47:36.463Z,70.76
2018-12-13T12:48:48.351Z,70.32
2018-12-13T12:49:53.683Z,70.04
2018-12-13T12:50:52.875Z,70.32
2018-12-13T12:52:02.815Z,70.13
2018-12-13T12:53:07.840Z,69.46
2018-12-13T12:54:06.824Z,68.80
2018-12-13T12:55:18.609Z,68.80
2018-12-13T12:56:27.630Z,68.80
2018-12-13T12:57:25.906Z,68.36
2018-12-13T12:58:36.966Z,67.50
2018-12-13T12:59:30.728Z,67.44
2018-12-13T13:00:40.465Z,66.30
2018-12-13T13:01:55.629Z,65.29
2018-12-13T13:02:51.954Z,64.81
2018-12-13T13:04:06.092Z,63.76
2018-12-13T13:05:11.323Z,63.48
2018-12-13T13:06:07.145Z,63.48
2018-12-13T13:07:16.972Z,62.53
2018-12-13T13:08:28.349Z,62.88
2018-12-13T13:09:24.806Z,63.26
2018-12-13T13:10:29.092Z,64.40
2018-12-13T13:11:34.320Z,64.02
2018-12-13T13:12:39.441Z,64.40
2018-12-13T13:13:49.487Z,63.92
2018-12-13T13:14:54.929Z,63.54
2018-12-13T13:16:02.509Z,63.35
2018-12-13T13:17:04.464Z,63.45
2018-12-13T13:18:11.949Z,63.92
2018-12-13T13:19:09.497Z,63.83
2018-12-13T13:20:12.782Z,63.35
2018-12-13T13:21:24.774Z,63.17
2018-12-13T13:22:29.393Z,63.45
2018-12-13T13:23:35.664Z,63.35
2018-12-13T13:24:46.098Z,62.81
2018-12-13T13:25:52.761Z,62.05
2018-12-13T13:26:56.148Z,62.43
2018-12-13T13:27:57.079Z,62.53
2018-12-13T13:29:06.408Z,62.46
2018-12-13T13:30:09.898Z,61.96
2018-12-13T13:31:19.440Z,61.77
2018-12-13T13:32:19.850Z,61.86
2018-12-13T13:33:25.409Z,62.24
2018-12-13T13:34:27.853Z,62.34
2018-12-13T13:35:37.997Z,61.86
2018-12-13T13:36:44.159Z,62.34
2018-12-13T13:37:54.816Z,62.59
2018-12-13T13:39:03.625Z,62.69
2018-12-13T13:39:54.724Z,63.64
2018-12-13T13:41:04.666Z,63.04
2018-12-13T13:42:15.634Z,63.79
2018-12-13T13:43:20.150Z,63.99
2018-12-13T13:44:17.088Z,64.37
2018-12-13T13:45:30.097Z,65.22
2018-12-13T13:46:37.069Z,65.22
2018-12-13T13:47:33.394Z,65.41
2018-12-13T13:48:45.233Z,65.80
2018-12-13T13:49:55.840Z,65.60
2018-12-13T13:50:52.973Z,65.03
2018-12-13T13:51:55.850Z,64.18
2018-12-13T13:53:05.180Z,64.78
2018-12-13T13:54:16.348Z,64.15
2018-12-13T13:55:26.390Z,62.75
2018-12-13T13:56:27.632Z,62.18
2018-12-13T13:57:33.792Z,61.51
2018-12-13T13:58:26.020Z,61.32
2018-12-13T13:59:43.530Z,60.66
2018-12-13T14:00:37.674Z,60.91
2018-12-13T14:01:45.286Z,61.00
2018-12-13T14:02:51.133Z,61.83
2018-12-13T14:03:56.981Z,62.49
2018-12-13T14:05:11.525Z,62.69
2018-12-13T14:06:07.852Z,62.94
2018-12-13T14:07:16.873Z,63.32
2018-12-13T14:08:33.577Z,63.99
2018-12-13T14:09:20.571Z,64.72